Time;durP1;ratioP1;P1;durP2;ratioP2;P2;SDS_P1;SDS_P2;PMS_P1;PMS_P2;Temp;Humidity;BMP_temperature;BMP_pressure;BME280_temperature;BME280_humidity;BME280_pressure;Samples;Min_cycle;Max_cycle;Signal;HPM_P1;HPM_P2
2023/04/08 00:02:07;;;;;;;;;;;5.90;67.50;;;;;;4983560;28;20013;-78
2023/04/08 00:04:33;;;;;;;;;;;5.90;67.50;;;;;;4984263;28;19935;-78
2023/04/08 00:06:58;;;;;;;;;;;5.90;67.50;;;;;;4971225;28;19949;-78
2023/04/08 00:09:24;;;;;;;;;;;5.90;67.50;;;;;;4965241;28;20560;-77
2023/04/08 00:11:49;;;;;;;;;;;5.80;67.50;;;;;;4965634;28;19961;-77
2023/04/08 00:14:15;;;;;;;;;;;5.80;67.50;;;;;;4981634;28;19926;-77
2023/04/08 00:16:40;;;;;;;;;;;5.80;67.50;;;;;;4973567;28;19933;-78
2023/04/08 00:19:06;;;;;;;;;;;5.80;68.40;;;;;;4978785;28;19922;-78
2023/04/08 00:21:31;;;;;;;;;;;5.80;67.60;;;;;;4960765;28;19925;-78
2023/04/08 00:23:57;;;;;;;;;;;5.70;67.60;;;;;;4972859;28;20013;-78
2023/04/08 00:26:22;;;;;;;;;;;5.70;67.60;;;;;;4971677;28;19919;-77
2023/04/08 00:28:48;;;;;;;;;;;5.70;67.70;;;;;;4972182;28;20192;-77
2023/04/08 00:31:13;;;;;;;;;;;5.60;67.60;;;;;;4971365;28;20021;-78
2023/04/08 00:33:39;;;;;;;;;;;5.60;67.60;;;;;;4967794;28;20379;-77
2023/04/08 00:36:04;;;;;;;;;;;5.60;67.60;;;;;;4983027;28;19956;-77
2023/04/08 00:38:30;;;;;;;;;;;5.50;67.60;;;;;;4968006;28;20014;-77
2023/04/08 00:40:55;;;;;;;;;;;5.50;67.70;;;;;;4948631;28;19963;-77
2023/04/08 00:43:21;;;;;;;;;;;5.50;67.70;;;;;;4948878;28;19926;-77
2023/04/08 00:45:47;;;;;;;;;;;5.40;67.70;;;;;;4963396;28;19922;-77
2023/04/08 00:48:12;;;;;;;;;;;5.40;67.70;;;;;;4948072;28;19930;-77
2023/04/08 00:50:38;;;;;;;;;;;5.40;67.80;;;;;;4947996;28;20729;-77
2023/04/08 00:53:03;;;;;;;;;;;5.40;67.80;;;;;;4961274;28;19926;-78
2023/04/08 00:55:29;;;;;;;;;;;5.30;67.80;;;;;;4947865;28;19985;-78
2023/04/08 00:57:54;;;;;;;;;;;5.30;67.80;;;;;;4945640;28;19926;-78
2023/04/08 01:00:20;;;;;;;;;;;5.30;67.80;;;;;;4953692;28;19929;-78
2023/04/08 01:03:04;;;;;;;;;;;5.30;67.90;;;;;;4972689;28;19932;-78
2023/04/08 01:05:37;;;;;;;;;;;5.30;67.90;;;;;;4954472;28;19922;-78
2023/04/08 01:08:04;;;;;;;;;;;5.20;67.90;;;;;;4951741;28;19937;-79
2023/04/08 01:10:29;;;;;;;;;;;5.20;67.90;;;;;;4961370;28;20073;-78
2023/04/08 01:12:55;;;;;;;;;;;5.10;68.70;;;;;;4964704;28;19922;-78
2023/04/08 01:15:21;;;;;;;;;;;5.10;67.90;;;;;;4965736;28;19918;-79
2023/04/08 01:17:47;;;;;;;;;;;5.10;68.00;;;;;;4951578;28;20004;-78
2023/04/08 01:20:12;;;;;;;;;;;5.10;68.00;;;;;;4948308;28;19965;-78
2023/04/08 01:22:56;;;;;;;;;;;5.10;68.00;;;;;;4953091;28;19926;-77
2023/04/08 01:25:31;;;;;;;;;;;5.00;68.00;;;;;;4952745;28;19926;-77
2023/04/08 01:27:57;;;;;;;;;;;5.00;68.00;;;;;;4964219;28;19926;-78
2023/04/08 01:30:25;;;;;;;;;;;5.00;68.10;;;;;;4971552;28;19961;-78
2023/04/08 01:32:54;;;;;;;;;;;5.00;68.10;;;;;;4951705;28;19922;-78
2023/04/08 01:35:20;;;;;;;;;;;4.90;68.10;;;;;;4969664;28;19929;-78
2023/04/08 01:37:45;;;;;;;;;;;4.90;68.10;;;;;;4967451;28;19930;-78
2023/04/08 01:40:11;;;;;;;;;;;4.80;68.00;;;;;;4965409;28;19922;-78
2023/04/08 01:42:36;;;;;;;;;;;4.80;68.10;;;;;;4949647;28;19926;-77
2023/04/08 01:45:03;;;;;;;;;;;4.80;68.20;;;;;;4949046;28;19930;-77
2023/04/08 01:47:29;;;;;;;;;;;4.80;68.20;;;;;;4958051;28;19922;-77
2023/04/08 01:49:54;;;;;;;;;;;4.80;68.20;;;;;;4985992;28;19933;-78
2023/04/08 01:52:20;;;;;;;;;;;4.70;68.10;;;;;;4986419;28;19929;-79
2023/04/08 01:54:45;;;;;;;;;;;4.70;68.20;;;;;;4993362;28;20396;-79
2023/04/08 01:57:11;;;;;;;;;;;4.70;68.20;;;;;;4970498;28;19921;-79
2023/04/08 01:59:37;;;;;;;;;;;4.70;68.20;;;;;;4982422;28;19921;-78
2023/04/08 02:02:03;;;;;;;;;;;4.60;68.20;;;;;;4980766;28;20641;-79
2023/04/08 02:04:29;;;;;;;;;;;4.60;68.30;;;;;;4973678;28;19930;-79
2023/04/08 02:06:55;;;;;;;;;;;4.60;68.30;;;;;;4978661;28;19937;-78
2023/04/08 02:09:20;;;;;;;;;;;4.60;68.30;;;;;;4976152;28;19928;-80
2023/04/08 02:11:45;;;;;;;;;;;4.50;68.30;;;;;;4963748;28;19984;-78
2023/04/08 02:14:11;;;;;;;;;;;4.50;68.30;;;;;;4991721;28;19918;-78
2023/04/08 02:16:41;;;;;;;;;;;4.50;68.40;;;;;;4974948;28;19926;-79
2023/04/08 02:19:09;;;;;;;;;;;4.50;68.40;;;;;;4980399;28;19918;-78
2023/04/08 02:21:41;;;;;;;;;;;4.40;68.30;;;;;;4985661;28;19926;-78
2023/04/08 02:24:06;;;;;;;;;;;4.50;68.40;;;;;;4976697;28;19922;-80
2023/04/08 02:26:32;;;;;;;;;;;4.40;68.40;;;;;;4981897;28;19926;-78
2023/04/08 02:28:58;;;;;;;;;;;4.40;68.40;;;;;;4973609;28;19922;-79
2023/04/08 02:31:23;;;;;;;;;;;4.40;68.50;;;;;;4964464;28;19926;-79
2023/04/08 02:33:48;;;;;;;;;;;4.40;68.50;;;;;;4961004;28;19933;-78
2023/04/08 02:36:14;;;;;;;;;;;4.40;68.50;;;;;;4989084;28;20398;-79
2023/04/08 02:38:39;;;;;;;;;;;4.30;68.50;;;;;;4984472;28;19988;-80
2023/04/08 02:41:05;;;;;;;;;;;4.40;68.50;;;;;;4970699;28;19922;-77
2023/04/08 02:43:31;;;;;;;;;;;4.40;68.60;;;;;;4972069;28;19926;-78
2023/04/08 02:46:02;;;;;;;;;;;4.30;68.50;;;;;;4951609;28;19968;-78
2023/04/08 02:48:27;;;;;;;;;;;4.30;68.60;;;;;;4953281;28;19926;-78
2023/04/08 02:50:53;;;;;;;;;;;4.30;68.50;;;;;;4969005;28;19969;-79
2023/04/08 02:53:18;;;;;;;;;;;4.30;68.60;;;;;;4968957;28;19922;-78
2023/04/08 02:55:44;;;;;;;;;;;4.30;68.70;;;;;;4975442;28;19922;-79
2023/04/08 02:58:09;;;;;;;;;;;4.30;68.60;;;;;;4955758;28;20383;-78
2023/04/08 03:00:38;;;;;;;;;;;4.30;68.60;;;;;;4973070;28;19930;-78
2023/04/08 03:03:04;;;;;;;;;;;4.30;68.70;;;;;;4963419;28;19931;-78
2023/04/08 03:05:29;;;;;;;;;;;4.30;68.70;;;;;;4957487;28;19922;-77
2023/04/08 03:07:55;;;;;;;;;;;4.30;68.70;;;;;;4957414;28;19922;-79
2023/04/08 03:10:20;;;;;;;;;;;4.20;68.60;;;;;;4950461;28;20426;-77
2023/04/08 03:12:46;;;;;;;;;;;4.20;68.60;;;;;;4957360;28;19945;-79
2023/04/08 03:15:11;;;;;;;;;;;4.20;68.60;;;;;;4951916;28;19941;-79
2023/04/08 03:17:37;;;;;;;;;;;4.20;68.70;;;;;;4950631;28;21321;-78
2023/04/08 03:20:03;;;;;;;;;;;4.20;68.70;;;;;;4943116;28;19922;-78
2023/04/08 03:22:29;;;;;;;;;;;4.20;68.70;;;;;;4971052;28;20528;-79
2023/04/08 03:24:54;;;;;;;;;;;4.20;68.70;;;;;;4954370;28;19930;-79
2023/04/08 03:27:20;;;;;;;;;;;4.20;68.80;;;;;;4957250;28;19918;-80
2023/04/08 03:29:45;;;;;;;;;;;4.20;68.70;;;;;;4970530;28;19969;-79
2023/04/08 03:32:11;;;;;;;;;;;4.20;68.70;;;;;;4970923;28;19929;-80
2023/04/08 03:34:36;;;;;;;;;;;4.20;68.80;;;;;;4941100;28;20688;-80
2023/04/08 03:37:02;;;;;;;;;;;4.20;68.80;;;;;;4962749;28;19933;-78
2023/04/08 03:39:27;;;;;;;;;;;4.20;68.80;;;;;;4953870;28;19923;-80
2023/04/08 03:41:53;;;;;;;;;;;4.10;69.60;;;;;;4963059;28;20001;-79
2023/04/08 03:44:18;;;;;;;;;;;4.10;68.80;;;;;;4956343;28;20290;-80
2023/04/08 03:46:44;;;;;;;;;;;4.10;68.80;;;;;;4954197;28;19926;-77
2023/04/08 03:49:09;;;;;;;;;;;4.10;68.80;;;;;;4942547;28;19925;-79
2023/04/08 03:51:34;;;;;;;;;;;4.10;68.80;;;;;;4964259;28;19946;-79
2023/04/08 03:54:00;;;;;;;;;;;4.10;68.80;;;;;;4966251;28;19922;-78
2023/04/08 03:56:25;;;;;;;;;;;4.10;68.80;;;;;;4950699;28;19918;-79
2023/04/08 03:58:51;;;;;;;;;;;4.10;68.90;;;;;;4955695;28;20313;-80
2023/04/08 04:01:16;;;;;;;;;;;4.10;68.80;;;;;;4964048;28;19954;-77
2023/04/08 04:03:42;;;;;;;;;;;4.10;68.90;;;;;;4951557;28;19926;-79
2023/04/08 04:06:07;;;;;;;;;;;4.10;68.90;;;;;;4965749;28;19922;-80
2023/04/08 04:08:32;;;;;;;;;;;4.10;68.90;;;;;;4952937;28;19926;-79
2023/04/08 04:10:58;;;;;;;;;;;4.00;68.80;;;;;;4949852;28;19919;-79
2023/04/08 04:13:24;;;;;;;;;;;4.00;68.90;;;;;;4950075;28;20405;-78
2023/04/08 04:15:49;;;;;;;;;;;4.00;68.90;;;;;;4962051;28;19931;-78
2023/04/08 04:18:15;;;;;;;;;;;4.00;68.90;;;;;;4955258;28;19950;-77
2023/04/08 04:20:41;;;;;;;;;;;4.00;68.90;;;;;;4957750;28;20388;-80
2023/04/08 04:23:06;;;;;;;;;;;4.00;68.90;;;;;;4966531;28;19918;-79
2023/04/08 04:25:32;;;;;;;;;;;4.00;69.00;;;;;;4954855;28;20296;-79
2023/04/08 04:27:57;;;;;;;;;;;4.00;68.90;;;;;;4968614;28;19922;-78
2023/04/08 04:30:23;;;;;;;;;;;4.00;69.00;;;;;;4969302;28;20304;-80
2023/04/08 04:32:48;;;;;;;;;;;4.00;69.00;;;;;;4967995;28;19977;-78
2023/04/08 04:35:14;;;;;;;;;;;4.00;69.00;;;;;;4970228;28;19934;-78
2023/04/08 04:37:39;;;;;;;;;;;4.00;69.00;;;;;;4965523;28;20417;-79
2023/04/08 04:40:05;;;;;;;;;;;4.00;69.00;;;;;;4966444;28;19933;-79
2023/04/08 04:42:30;;;;;;;;;;;4.00;69.00;;;;;;4972066;28;19930;-80
2023/04/08 04:44:56;;;;;;;;;;;4.00;69.00;;;;;;4968360;28;19943;-79
2023/04/08 04:47:22;;;;;;;;;;;4.00;69.00;;;;;;4968884;28;19922;-80
2023/04/08 04:49:47;;;;;;;;;;;4.00;69.00;;;;;;4950609;28;19929;-79
2023/04/08 04:52:13;;;;;;;;;;;4.00;69.00;;;;;;4970132;28;19922;-79
2023/04/08 04:54:38;;;;;;;;;;;4.00;69.00;;;;;;4953969;28;20373;-78
2023/04/08 04:57:03;;;;;;;;;;;4.00;69.00;;;;;;4960941;28;19922;-81
2023/04/08 04:59:29;;;;;;;;;;;4.00;69.10;;;;;;4960025;28;19929;-79
2023/04/08 05:01:56;;;;;;;;;;;4.00;69.10;;;;;;4947967;28;19953;-78
2023/04/08 05:04:22;;;;;;;;;;;4.00;69.10;;;;;;4960011;28;19929;-78
2023/04/08 05:06:47;;;;;;;;;;;4.00;69.10;;;;;;4956444;28;19918;-79
2023/04/08 05:09:13;;;;;;;;;;;4.00;69.10;;;;;;4955672;28;21467;-78
2023/04/08 05:11:38;;;;;;;;;;;4.00;69.10;;;;;;4967838;28;19930;-81
2023/04/08 05:14:04;;;;;;;;;;;4.00;69.10;;;;;;4956025;28;19923;-79
2023/04/08 05:16:29;;;;;;;;;;;4.00;69.10;;;;;;4971507;28;19942;-78
2023/04/08 05:18:55;;;;;;;;;;;4.10;69.10;;;;;;4961501;28;19922;-79
2023/04/08 05:21:20;;;;;;;;;;;4.10;69.20;;;;;;4964335;28;20436;-78
2023/04/08 05:23:45;;;;;;;;;;;4.10;69.10;;;;;;4974341;28;19929;-78
2023/04/08 05:26:11;;;;;;;;;;;4.10;69.10;;;;;;4968998;28;20151;-80
2023/04/08 05:28:36;;;;;;;;;;;4.10;69.10;;;;;;4967361;28;20021;-80
2023/04/08 05:31:02;;;;;;;;;;;4.10;69.10;;;;;;4956232;28;19950;-79
2023/04/08 05:33:27;;;;;;;;;;;4.10;69.10;;;;;;4961013;28;19922;-79
2023/04/08 05:35:53;;;;;;;;;;;4.10;69.10;;;;;;4959053;28;19922;-79
2023/04/08 05:38:18;;;;;;;;;;;4.20;69.10;;;;;;4960100;28;20586;-80
2023/04/08 05:40:44;;;;;;;;;;;4.20;69.10;;;;;;4976822;28;19961;-80
2023/04/08 05:43:09;;;;;;;;;;;4.20;69.10;;;;;;4975538;28;20384;-80
2023/04/08 05:45:35;;;;;;;;;;;4.20;69.10;;;;;;4980359;28;19922;-77
2023/04/08 05:48:00;;;;;;;;;;;4.30;69.20;;;;;;4978292;28;19922;-79
2023/04/08 05:50:26;;;;;;;;;;;4.30;69.10;;;;;;4975083;28;19980;-79
2023/04/08 05:52:51;;;;;;;;;;;4.30;69.10;;;;;;4972050;28;19929;-78
2023/04/08 05:55:17;;;;;;;;;;;4.30;69.10;;;;;;4975009;28;19922;-79
2023/04/08 05:57:42;;;;;;;;;;;4.30;69.10;;;;;;4972527;28;19944;-78
2023/04/08 06:00:08;;;;;;;;;;;4.40;69.10;;;;;;4977178;28;20565;-79
2023/04/08 06:02:34;;;;;;;;;;;4.40;69.10;;;;;;4987152;28;19922;-78
2023/04/08 06:05:00;;;;;;;;;;;4.40;69.10;;;;;;4987600;28;19930;-80
2023/04/08 06:07:25;;;;;;;;;;;4.50;69.10;;;;;;4977847;28;19925;-79
2023/04/08 06:09:51;;;;;;;;;;;4.50;69.10;;;;;;4976774;28;19928;-81
2023/04/08 06:12:16;;;;;;;;;;;4.50;69.00;;;;;;4976255;28;19922;-79
2023/04/08 06:14:42;;;;;;;;;;;4.60;69.10;;;;;;4974836;28;19928;-79
2023/04/08 06:17:07;;;;;;;;;;;4.60;69.00;;;;;;4990534;28;19922;-79
2023/04/08 06:19:32;;;;;;;;;;;4.70;69.00;;;;;;4975549;28;20356;-79
2023/04/08 06:21:58;;;;;;;;;;;4.80;69.10;;;;;;4976572;28;19918;-80
2023/04/08 06:24:24;;;;;;;;;;;4.80;69.00;;;;;;4992264;28;19933;-80
2023/04/08 06:26:51;;;;;;;;;;;4.80;69.00;;;;;;4979604;28;20044;-80
2023/04/08 06:29:17;;;;;;;;;;;4.80;68.90;;;;;;4977167;28;19921;-79
2023/04/08 06:31:42;;;;;;;;;;;4.90;68.90;;;;;;4974950;28;19929;-79
2023/04/08 06:34:08;;;;;;;;;;;4.90;68.90;;;;;;4979444;28;20436;-79
2023/04/08 06:36:33;;;;;;;;;;;5.00;69.00;;;;;;4966226;28;19926;-78
2023/04/08 06:38:59;;;;;;;;;;;5.00;68.90;;;;;;4956262;28;19965;-77
2023/04/08 06:41:24;;;;;;;;;;;5.00;68.90;;;;;;4957410;28;19922;-78
2023/04/08 06:43:50;;;;;;;;;;;5.10;68.90;;;;;;4969645;28;19929;-80
2023/04/08 06:46:17;;;;;;;;;;;5.10;68.90;;;;;;4973445;28;21720;-79
2023/04/08 06:48:42;;;;;;;;;;;5.20;68.90;;;;;;4964324;28;19926;-79
2023/04/08 06:51:08;;;;;;;;;;;5.20;68.80;;;;;;4969268;28;19926;-79
2023/04/08 06:53:33;;;;;;;;;;;5.30;68.90;;;;;;4962011;28;19941;-81
2023/04/08 06:55:59;;;;;;;;;;;5.30;68.80;;;;;;4955249;28;19922;-81
2023/04/08 06:58:24;;;;;;;;;;;5.40;68.80;;;;;;4971465;28;19924;-80
2023/04/08 07:00:50;;;;;;;;;;;5.50;68.80;;;;;;4959888;28;19953;-79
2023/04/08 07:03:16;;;;;;;;;;;5.50;68.80;;;;;;4965650;28;19930;-81
2023/04/08 07:05:41;;;;;;;;;;;5.60;68.80;;;;;;4969123;28;19946;-81
2023/04/08 07:08:07;;;;;;;;;;;5.60;68.70;;;;;;4969477;28;19930;-78
2023/04/08 07:10:33;;;;;;;;;;;5.60;68.70;;;;;;4965403;28;19949;-78
2023/04/08 07:12:59;;;;;;;;;;;5.70;68.70;;;;;;4971116;28;20466;-80
2023/04/08 07:15:24;;;;;;;;;;;5.80;68.70;;;;;;4951985;28;20005;-80
2023/04/08 07:17:50;;;;;;;;;;;5.80;68.60;;;;;;4963265;28;19933;-79
2023/04/08 07:20:15;;;;;;;;;;;5.90;68.60;;;;;;4954840;28;20385;-81
2023/04/08 07:22:41;;;;;;;;;;;6.00;68.60;;;;;;4947401;28;20587;-80
2023/04/08 07:25:07;;;;;;;;;;;6.00;68.50;;;;;;4955301;28;19925;-80
2023/04/08 07:27:32;;;;;;;;;;;6.10;68.50;;;;;;4952475;28;19988;-82
2023/04/08 07:29:58;;;;;;;;;;;6.10;68.50;;;;;;4968066;28;20033;-81
2023/04/08 07:32:23;;;;;;;;;;;6.20;68.50;;;;;;4954951;28;20468;-79
2023/04/08 07:34:49;;;;;;;;;;;6.20;68.50;;;;;;4955228;28;19922;-80
2023/04/08 07:37:14;;;;;;;;;;;6.30;68.40;;;;;;4954527;28;19941;-81
2023/04/08 07:39:40;;;;;;;;;;;6.30;68.40;;;;;;4950612;28;19919;-81
2023/04/08 07:42:05;;;;;;;;;;;6.40;68.40;;;;;;4954519;28;19919;-76
2023/04/08 07:44:31;;;;;;;;;;;6.40;68.40;;;;;;4956265;28;19933;-79
2023/04/08 07:46:56;;;;;;;;;;;6.50;68.40;;;;;;4969199;28;19922;-80
2023/04/08 07:49:22;;;;;;;;;;;6.50;69.10;;;;;;4958613;28;19922;-78
2023/04/08 07:51:47;;;;;;;;;;;6.60;68.30;;;;;;4962184;28;20661;-80
2023/04/08 07:54:16;;;;;;;;;;;6.60;68.30;;;;;;4949685;28;19961;-79
2023/04/08 07:56:43;;;;;;;;;;;6.70;68.20;;;;;;4966266;28;19929;-79
2023/04/08 07:59:11;;;;;;;;;;;6.70;68.20;;;;;;4953951;28;19969;-78
2023/04/08 08:01:37;;;;;;;;;;;6.70;68.20;;;;;;4961960;28;19919;-77
2023/04/08 08:04:02;;;;;;;;;;;6.70;68.10;;;;;;4964472;28;19926;-78
2023/04/08 08:06:28;;;;;;;;;;;6.80;68.10;;;;;;4971165;28;19923;-79
2023/04/08 08:08:53;;;;;;;;;;;6.80;68.10;;;;;;4974994;28;19987;-79
2023/04/08 08:11:20;;;;;;;;;;;6.90;68.20;;;;;;4965988;28;20363;-78
2023/04/08 08:13:45;;;;;;;;;;;6.90;68.10;;;;;;4975914;28;19933;-79
2023/04/08 08:16:11;;;;;;;;;;;7.00;68.20;;;;;;4961094;28;20012;-78
2023/04/08 08:18:37;;;;;;;;;;;7.00;68.20;;;;;;4955591;28;19926;-79
2023/04/08 08:21:03;;;;;;;;;;;7.00;68.00;;;;;;4959812;28;19918;-79
2023/04/08 08:23:28;;;;;;;;;;;7.10;68.90;;;;;;4973609;28;19922;-79
2023/04/08 08:26:00;;;;;;;;;;;7.10;68.00;;;;;;4959912;28;19934;-79
2023/04/08 08:28:26;;;;;;;;;;;7.20;68.00;;;;;;4972897;28;20015;-79
2023/04/08 08:30:51;;;;;;;;;;;7.30;68.00;;;;;;4974177;28;20007;-79
2023/04/08 08:33:17;;;;;;;;;;;7.30;67.90;;;;;;4960081;28;20403;-78
2023/04/08 08:35:42;;;;;;;;;;;7.30;67.80;;;;;;4957512;28;19944;-77
2023/04/08 08:38:08;;;;;;;;;;;7.40;67.90;;;;;;4960246;28;20266;-79
2023/04/08 08:40:33;;;;;;;;;;;7.50;67.90;;;;;;4945962;28;19926;-79
2023/04/08 08:43:00;;;;;;;;;;;7.50;67.80;;;;;;4968925;28;20311;-80
2023/04/08 08:45:25;;;;;;;;;;;7.60;67.80;;;;;;4973677;28;19918;-79
2023/04/08 08:47:51;;;;;;;;;;;7.60;67.70;;;;;;4970782;28;19945;-80
2023/04/08 08:50:16;;;;;;;;;;;7.70;67.70;;;;;;4957524;28;19946;-79
2023/04/08 08:52:48;;;;;;;;;;;7.70;67.70;;;;;;4956194;28;20393;-78
2023/04/08 08:55:14;;;;;;;;;;;7.80;67.60;;;;;;4962108;28;19935;-79
2023/04/08 08:57:39;;;;;;;;;;;7.90;67.60;;;;;;4956970;28;19922;-78
2023/04/08 09:00:05;;;;;;;;;;;8.00;67.70;;;;;;4962188;28;19928;-78
2023/04/08 09:02:31;;;;;;;;;;;8.00;67.60;;;;;;4958402;28;19919;-79
2023/04/08 09:05:03;;;;;;;;;;;8.10;68.40;;;;;;4957408;28;20034;-80
2023/04/08 09:07:30;;;;;;;;;;;8.10;67.60;;;;;;4968329;28;20400;-79
2023/04/08 09:09:55;;;;;;;;;;;8.20;67.50;;;;;;4953234;28;20045;-78
2023/04/08 09:12:21;;;;;;;;;;;8.30;67.50;;;;;;4963687;28;20520;-78
2023/04/08 09:14:47;;;;;;;;;;;8.40;67.50;;;;;;4979751;28;20025;-78
2023/04/08 09:17:12;;;;;;;;;;;8.60;67.50;;;;;;4982229;28;19918;-78
2023/04/08 09:19:38;;;;;;;;;;;8.60;67.30;;;;;;5000161;28;20186;-78
2023/04/08 09:22:04;;;;;;;;;;;8.70;67.20;;;;;;5000245;28;19972;-78
2023/04/08 09:24:30;;;;;;;;;;;8.90;67.20;;;;;;4991940;28;20015;-79
2023/04/08 09:26:56;;;;;;;;;;;9.00;67.10;;;;;;4980232;28;19918;-78
2023/04/08 09:29:27;;;;;;;;;;;9.10;67.10;;;;;;4979926;28;19990;-78
2023/04/08 09:31:54;;;;;;;;;;;9.20;67.00;;;;;;4980234;28;20312;-80
2023/04/08 09:34:22;;;;;;;;;;;9.30;66.90;;;;;;4979538;28;19925;-79
2023/04/08 09:36:50;;;;;;;;;;;9.40;66.80;;;;;;4976817;28;19922;-78
2023/04/08 09:39:15;;;;;;;;;;;9.50;66.70;;;;;;4993386;28;20372;-79
2023/04/08 09:41:41;;;;;;;;;;;9.60;66.70;;;;;;4976144;28;19921;-80
2023/04/08 09:44:08;;;;;;;;;;;9.70;67.40;;;;;;4991429;28;19926;-78
2023/04/08 09:46:41;;;;;;;;;;;9.80;66.60;;;;;;4992660;28;20400;-78
2023/04/08 09:49:11;;;;;;;;;;;9.90;66.50;;;;;;4995483;28;20720;-79
2023/04/08 09:51:41;;;;;;;;;;;10.00;66.40;;;;;;4979249;28;19922;-79
2023/04/08 09:54:10;;;;;;;;;;;10.00;66.20;;;;;;4981201;28;20001;-80
2023/04/08 09:56:38;;;;;;;;;;;10.10;66.20;;;;;;4981278;28;19928;-78
2023/04/08 09:59:08;;;;;;;;;;;10.20;66.10;;;;;;4975738;28;20741;-80
2023/04/08 10:01:36;;;;;;;;;;;10.30;66.20;;;;;;4985316;28;19922;-79
2023/04/08 10:04:02;;;;;;;;;;;10.40;66.10;;;;;;4976087;28;19930;-81
2023/04/08 10:06:28;;;;;;;;;;;10.50;66.00;;;;;;4992523;28;19922;-80
2023/04/08 10:08:54;;;;;;;;;;;10.60;66.00;;;;;;4973267;28;20380;-79
2023/04/08 10:11:20;;;;;;;;;;;10.80;66.00;;;;;;4973135;28;19922;-80
2023/04/08 10:13:46;;;;;;;;;;;10.90;65.80;;;;;;4963449;28;19929;-79
2023/04/08 10:16:15;;;;;;;;;;;11.00;66.00;;;;;;4975110;28;20387;-79
2023/04/08 10:18:41;;;;;;;;;;;11.10;65.60;;;;;;4972867;28;21190;-78
2023/04/08 10:24:10;;;;;;;;;;;11.40;65.30;;;;;;4960882;28;19980;-76
2023/04/08 10:26:35;;;;;;;;;;;11.50;65.30;;;;;;4953863;28;20557;-78
2023/04/08 10:29:16;;;;;;;;;;;11.70;65.20;;;;;;4957171;28;19959;-80
2023/04/08 10:31:41;;;;;;;;;;;11.80;65.10;;;;;;4957087;28;19956;-75
2023/04/08 10:34:20;;;;;;;;;;;12.00;65.00;;;;;;4964095;28;20312;-77
2023/04/08 10:36:45;;;;;;;;;;;12.00;64.80;;;;;;4974742;28;19918;-79
2023/04/08 10:39:11;;;;;;;;;;;12.10;64.70;;;;;;4959745;28;19929;-77
2023/04/08 10:41:43;;;;;;;;;;;12.10;64.70;;;;;;4969695;28;19919;-77
2023/04/08 10:44:15;;;;;;;;;;;12.20;64.70;;;;;;4970543;28;19930;-78
2023/04/08 10:46:41;;;;;;;;;;;12.20;64.60;;;;;;4945170;28;19922;-77
2023/04/08 10:49:07;;;;;;;;;;;12.30;64.60;;;;;;4961263;28;19922;-77
2023/04/08 10:51:33;;;;;;;;;;;12.30;64.60;;;;;;4960722;28;19919;-78
2023/04/08 10:54:18;;;;;;;;;;;12.30;64.60;;;;;;4963089;28;20543;-77
2023/04/08 10:56:48;;;;;;;;;;;12.40;64.50;;;;;;4954194;28;19926;-80
2023/04/08 10:59:18;;;;;;;;;;;12.50;64.50;;;;;;4938757;28;19922;-77
2023/04/08 11:01:44;;;;;;;;;;;12.60;64.40;;;;;;4946918;28;19919;-78
2023/04/08 11:04:12;;;;;;;;;;;12.60;64.40;;;;;;4975385;28;20423;-77
2023/04/08 11:06:38;;;;;;;;;;;12.60;64.30;;;;;;4971979;28;20388;-77
2023/04/08 11:09:03;;;;;;;;;;;12.70;64.30;;;;;;4975972;28;19922;-77
2023/04/08 11:11:29;;;;;;;;;;;12.80;64.40;;;;;;4958823;28;19918;-78
2023/04/08 11:13:54;;;;;;;;;;;12.80;64.30;;;;;;4969930;28;19953;-77
2023/04/08 11:16:20;;;;;;;;;;;12.80;64.20;;;;;;4968125;28;19922;-78
2023/04/08 11:18:46;;;;;;;;;;;12.80;64.10;;;;;;4970299;28;20482;-78
2023/04/08 11:21:12;;;;;;;;;;;12.80;64.20;;;;;;4959051;28;19925;-77
2023/04/08 11:23:37;;;;;;;;;;;12.80;64.20;;;;;;4957773;28;19930;-78
2023/04/08 11:26:03;;;;;;;;;;;12.80;64.10;;;;;;4956175;28;20432;-78
2023/04/08 11:28:28;;;;;;;;;;;12.80;64.90;;;;;;4971539;28;19918;-78
2023/04/08 11:30:54;;;;;;;;;;;12.90;64.20;;;;;;4978409;28;19948;-77
2023/04/08 11:33:19;;;;;;;;;;;12.90;64.10;;;;;;4975492;28;19925;-77
2023/04/08 11:35:44;;;;;;;;;;;13.00;64.10;;;;;;4974778;28;19917;-76
2023/04/08 11:38:10;;;;;;;;;;;13.00;64.00;;;;;;4972576;28;20631;-77
2023/04/08 11:40:36;;;;;;;;;;;13.00;63.90;;;;;;4973839;28;19922;-79
2023/04/08 11:43:10;;;;;;;;;;;13.10;63.90;;;;;;4970884;28;20045;-74
2023/04/08 11:45:37;;;;;;;;;;;13.10;63.90;;;;;;4980975;28;20388;-76
2023/04/08 11:48:07;;;;;;;;;;;13.20;63.80;;;;;;4969237;28;19922;-76
2023/04/08 11:50:32;;;;;;;;;;;13.20;63.70;;;;;;4961990;28;19913;-77
2023/04/08 11:52:58;;;;;;;;;;;13.20;63.70;;;;;;4971110;28;19925;-80
2023/04/08 11:55:24;;;;;;;;;;;13.20;63.70;;;;;;4974447;28;19968;-79
2023/04/08 11:57:51;;;;;;;;;;;13.20;63.70;;;;;;4974872;28;19915;-75
2023/04/08 12:00:18;;;;;;;;;;;13.20;63.70;;;;;;4976166;28;19918;-78
2023/04/08 12:02:43;;;;;;;;;;;13.20;63.70;;;;;;4982564;28;19925;-79
2023/04/08 12:05:09;;;;;;;;;;;13.20;63.70;;;;;;4978666;28;22896;-79
2023/04/08 12:07:35;;;;;;;;;;;13.10;63.70;;;;;;4988008;28;19926;-79
2023/04/08 12:10:00;;;;;;;;;;;13.10;63.70;;;;;;4981725;28;19980;-79
2023/04/08 12:12:25;;;;;;;;;;;13.20;63.80;;;;;;4974152;28;19952;-78
2023/04/08 12:14:51;;;;;;;;;;;13.20;63.70;;;;;;4966110;28;19951;-78
2023/04/08 12:17:16;;;;;;;;;;;13.20;63.70;;;;;;4977429;28;19925;-78
2023/04/08 12:19:42;;;;;;;;;;;13.20;63.70;;;;;;4976026;28;19960;-78
2023/04/08 12:22:07;;;;;;;;;;;13.10;63.70;;;;;;4982790;28;19925;-80
2023/04/08 12:24:33;;;;;;;;;;;13.10;63.70;;;;;;4977606;28;19922;-78
2023/04/08 12:26:58;;;;;;;;;;;13.10;63.70;;;;;;4956400;28;19929;-81
2023/04/08 12:29:24;;;;;;;;;;;13.10;63.70;;;;;;4959915;28;19922;-77
2023/04/08 12:31:50;;;;;;;;;;;13.10;63.70;;;;;;4960156;28;19922;-78
2023/04/08 12:34:15;;;;;;;;;;;13.10;63.80;;;;;;4968085;28;19930;-76
2023/04/08 12:36:41;;;;;;;;;;;13.20;63.80;;;;;;4956586;28;19926;-78
2023/04/08 12:39:07;;;;;;;;;;;13.20;63.70;;;;;;4958174;28;19922;-79
2023/04/08 12:41:32;;;;;;;;;;;13.20;63.70;;;;;;4957751;28;20463;-78
2023/04/08 12:43:58;;;;;;;;;;;13.20;63.70;;;;;;4968137;28;19942;-77
2023/04/08 12:46:23;;;;;;;;;;;13.30;63.70;;;;;;4968199;28;19918;-80
2023/04/08 12:48:49;;;;;;;;;;;13.30;63.60;;;;;;4958196;28;20367;-78
2023/04/08 12:51:14;;;;;;;;;;;13.30;63.60;;;;;;4961069;28;19980;-80
2023/04/08 12:53:39;;;;;;;;;;;13.30;63.50;;;;;;4968347;28;20444;-77
2023/04/08 12:56:05;;;;;;;;;;;13.30;63.50;;;;;;4975434;28;19929;-78
2023/04/08 12:58:31;;;;;;;;;;;13.40;63.60;;;;;;4968762;28;20452;-77
2023/04/08 13:00:56;;;;;;;;;;;13.40;63.60;;;;;;4975937;28;19922;-76
2023/04/08 13:03:22;;;;;;;;;;;13.30;63.50;;;;;;4968710;28;20380;-78
2023/04/08 13:05:47;;;;;;;;;;;13.30;63.60;;;;;;4961319;28;19953;-78
2023/04/08 13:08:13;;;;;;;;;;;13.30;63.60;;;;;;4947479;28;20011;-78
2023/04/08 13:10:38;;;;;;;;;;;13.30;63.60;;;;;;4957830;28;20290;-78
2023/04/08 13:13:04;;;;;;;;;;;13.30;63.50;;;;;;4977128;28;19922;-78
2023/04/08 13:15:29;;;;;;;;;;;13.30;63.60;;;;;;4960359;28;19918;-77
2023/04/08 13:17:55;;;;;;;;;;;13.30;63.60;;;;;;4962605;28;19922;-78
2023/04/08 13:20:24;;;;;;;;;;;13.30;63.60;;;;;;4961948;28;20296;-78
2023/04/08 13:22:50;;;;;;;;;;;13.40;63.60;;;;;;4961184;28;19966;-77
2023/04/08 13:25:15;;;;;;;;;;;13.40;63.60;;;;;;4961478;28;19960;-78
2023/04/08 13:27:41;;;;;;;;;;;13.40;63.50;;;;;;4985901;28;19926;-77
2023/04/08 13:30:06;;;;;;;;;;;13.40;63.50;;;;;;4979315;28;19961;-77
2023/04/08 13:32:32;;;;;;;;;;;13.40;63.60;;;;;;4975677;28;20344;-77
2023/04/08 13:34:57;;;;;;;;;;;13.40;63.60;;;;;;4992843;28;20500;-77
2023/04/08 13:37:23;;;;;;;;;;;13.30;63.50;;;;;;4978761;28;19926;-77
2023/04/08 13:39:48;;;;;;;;;;;13.30;63.60;;;;;;4953772;28;20306;-76
2023/04/08 13:42:14;;;;;;;;;;;13.40;63.60;;;;;;4957505;28;20055;-77
2023/04/08 13:44:40;;;;;;;;;;;13.40;63.60;;;;;;4954253;28;19926;-77
2023/04/08 13:47:06;;;;;;;;;;;13.40;63.60;;;;;;4945407;28;20471;-79
2023/04/08 13:49:31;;;;;;;;;;;13.40;63.60;;;;;;4957717;28;19957;-78
2023/04/08 13:51:57;;;;;;;;;;;13.40;63.50;;;;;;4958028;28;19976;-78
2023/04/08 13:54:22;;;;;;;;;;;13.40;63.60;;;;;;4958451;28;19929;-77
2023/04/08 13:56:48;;;;;;;;;;;13.50;63.60;;;;;;4970142;28;20304;-77
2023/04/08 13:59:13;;;;;;;;;;;13.50;63.60;;;;;;4958349;28;19939;-78
2023/04/08 14:01:39;;;;;;;;;;;13.50;63.60;;;;;;4960259;28;19953;-80
2023/04/08 14:04:05;;;;;;;;;;;13.50;63.50;;;;;;4963044;28;20623;-75
2023/04/08 14:06:31;;;;;;;;;;;13.50;63.50;;;;;;4962895;28;20451;-78
2023/04/08 14:08:56;;;;;;;;;;;13.50;63.50;;;;;;4970141;28;19960;-76
2023/04/08 14:11:22;;;;;;;;;;;13.60;63.50;;;;;;4964364;28;19924;-77
2023/04/08 14:13:47;;;;;;;;;;;13.60;63.50;;;;;;4963949;28;19953;-77
2023/04/08 14:16:13;;;;;;;;;;;13.60;63.50;;;;;;4961285;28;19923;-76
2023/04/08 14:18:38;;;;;;;;;;;13.60;63.50;;;;;;4962864;28;19937;-78
2023/04/08 14:21:04;;;;;;;;;;;13.60;63.50;;;;;;4961385;28;19945;-77
2023/04/08 14:23:30;;;;;;;;;;;13.60;63.40;;;;;;4968311;28;19985;-76